Time;durP1;ratioP1;P1;durP2;ratioP2;P2;SDS_P1;SDS_P2;PMS_P1;PMS_P2;Temp;Humidity;BMP_temperature;BMP_pressure;BME280_temperature;BME280_humidity;BME280_pressure;Samples;Min_cycle;Max_cycle;Signal;HPM_P1;HPM_P2
2023/03/31 00:01:57;;;;;;;9.20;8.80;;;;;;;;;;5102997;27;20027;-62
2023/03/31 00:04:24;;;;;;;9.55;9.05;;;;;;;;;;5121678;27;20030;-62
2023/03/31 00:06:52;;;;;;;9.55;9.05;;;;;;;;;;5115091;28;20038;-62
2023/03/31 00:09:20;;;;;;;8.80;8.40;;;;;;;;;;5115409;28;20038;-62
2023/03/31 00:11:46;;;;;;;9.30;8.85;;;;;;;;;;5115315;28;20395;-62
2023/03/31 00:14:11;;;;;;;8.80;8.40;;;;;;;;;;5113691;28;20016;-61
2023/03/31 00:16:37;;;;;;;10.40;9.82;;;;;;;;;;5113406;28;20102;-61
2023/03/31 00:19:03;;;;;;;9.63;9.13;;;;;;;;;;5111319;27;20015;-62
2023/03/31 00:21:32;;;;;;;9.15;8.75;;;;;;;;;;5114878;28;20012;-61
2023/03/31 00:24:08;;;;;;;9.63;9.13;;;;;;;;;;5102506;28;20015;-61
2023/03/31 00:26:34;;;;;;;9.60;9.10;;;;;;;;;;5113617;28;20023;-62
2023/03/31 00:29:00;;;;;;;9.20;8.80;;;;;;;;;;5114517;28;20061;-61
2023/03/31 00:31:26;;;;;;;9.95;9.45;;;;;;;;;;5113408;28;20450;-61
2023/03/31 00:33:51;;;;;;;9.50;9.00;;;;;;;;;;5114346;28;20015;-62
2023/03/31 00:36:20;;;;;;;8.98;8.57;;;;;;;;;;5113505;27;20073;-61
2023/03/31 00:38:48;;;;;;;9.55;9.05;;;;;;;;;;5114236;28;20064;-62
2023/03/31 00:41:14;;;;;;;10.00;9.50;;;;;;;;;;5120100;28;20023;-62
2023/03/31 00:43:41;;;;;;;9.43;8.93;;;;;;;;;;5114229;28;20024;-62
2023/03/31 00:46:14;;;;;;;9.27;8.88;;;;;;;;;;5114143;28;20019;-62
2023/03/31 00:48:43;;;;;;;9.27;8.88;;;;;;;;;;5112036;28;20027;-62
2023/03/31 00:51:08;;;;;;;9.25;8.80;;;;;;;;;;5107046;28;20031;-62
2023/03/31 00:53:35;;;;;;;9.05;8.65;;;;;;;;;;5114849;28;20446;-61
2023/03/31 00:56:12;;;;;;;8.77;8.38;;;;;;;;;;5114062;28;20471;-62
2023/03/31 00:58:42;;;;;;;9.57;9.07;;;;;;;;;;5113846;28;20031;-60
2023/03/31 01:01:09;;;;;;;9.40;8.90;;;;;;;;;;5112383;28;20040;-61
2023/03/31 01:03:34;;;;;;;9.68;9.18;;;;;;;;;;5113627;28;20149;-62
2023/03/31 01:06:03;;;;;;;8.90;8.50;;;;;;;;;;5104196;28;20107;-62
2023/03/31 01:08:29;;;;;;;8.93;8.52;;;;;;;;;;5108862;28;20385;-61
2023/03/31 01:11:03;;;;;;;9.48;8.98;;;;;;;;;;5113973;28;20015;-61
2023/03/31 01:13:29;;;;;;;9.40;8.90;;;;;;;;;;5113819;28;20019;-61
2023/03/31 01:15:54;;;;;;;10.15;9.57;;;;;;;;;;5106456;28;20077;-61
2023/03/31 01:18:20;;;;;;;9.00;8.60;;;;;;;;;;5111173;28;20478;-62
2023/03/31 01:20:54;;;;;;;9.07;8.68;;;;;;;;;;5113051;28;20459;-62
2023/03/31 01:23:25;;;;;;;9.10;8.70;;;;;;;;;;5112461;28;20045;-61
2023/03/31 01:26:08;;;;;;;9.65;9.15;;;;;;;;;;5106543;28;20032;-62
2023/03/31 01:28:42;;;;;;;8.98;8.57;;;;;;;;;;5110489;27;20028;-62
2023/03/31 01:31:07;;;;;;;;;;;;;;;;;;5113331;28;20023;-62
2023/03/31 01:33:38;;;;;;;8.90;8.50;;;;;;;;;;5113429;28;19911;-63
2023/03/31 01:36:07;;;;;;;9.30;8.80;;;;;;;;;;5112864;28;20693;-62
2023/03/31 01:38:42;;;;;;;9.38;8.88;;;;;;;;;;5105904;28;20100;-62
2023/03/31 01:41:17;;;;;;;9.55;9.05;;;;;;;;;;5110818;27;20030;-61
2023/03/31 01:43:49;;;;;;;9.00;8.60;;;;;;;;;;5113588;28;20015;-61
2023/03/31 01:46:27;;;;;;;9.35;8.85;;;;;;;;;;5111317;28;20051;-61
2023/03/31 01:48:55;;;;;;;9.18;8.75;;;;;;;;;;5102531;28;20026;-62
2023/03/31 01:51:44;;;;;;;8.80;8.40;;;;;;;;;;5111231;28;20104;-61
2023/03/31 01:54:09;;;;;;;9.02;8.63;;;;;;;;;;5112924;28;20020;-62
2023/03/31 01:56:38;;;;;;;9.48;8.98;;;;;;;;;;5109775;27;20024;-62
2023/03/31 01:59:09;;;;;;;8.95;8.55;;;;;;;;;;5113246;28;20062;-61
2023/03/31 02:01:37;;;;;;;9.07;8.68;;;;;;;;;;5119681;27;20128;-61
2023/03/31 02:04:13;;;;;;;8.90;8.50;;;;;;;;;;5112849;28;20019;-62
2023/03/31 02:06:41;;;;;;;9.40;8.90;;;;;;;;;;5107601;28;20042;-62
2023/03/31 02:09:12;;;;;;;9.40;8.90;;;;;;;;;;5112669;28;20023;-62
2023/03/31 02:11:39;;;;;;;9.43;8.93;;;;;;;;;;5111122;28;20020;-61
2023/03/31 02:14:07;;;;;;;9.43;8.93;;;;;;;;;;5107410;28;20049;-61
2023/03/31 02:16:36;;;;;;;9.32;8.85;;;;;;;;;;5112323;28;20012;-60
2023/03/31 02:19:04;;;;;;;9.32;8.82;;;;;;;;;;5113035;28;20031;-61
2023/03/31 02:21:35;;;;;;;8.70;8.30;;;;;;;;;;5112808;28;20016;-61
2023/03/31 02:24:03;;;;;;;8.90;8.50;;;;;;;;;;5107153;28;20467;-61
2023/03/31 02:26:30;;;;;;;9.50;9.00;;;;;;;;;;5111221;28;20486;-61
2023/03/31 02:28:56;;;;;;;9.00;8.60;;;;;;;;;;5102561;28;20020;-61
2023/03/31 02:31:35;;;;;;;9.40;8.90;;;;;;;;;;5106943;28;20080;-60
2023/03/31 02:34:01;;;;;;;8.93;8.52;;;;;;;;;;5112476;28;20027;-61
2023/03/31 02:36:27;;;;;;;8.90;8.50;;;;;;;;;;5125244;27;20039;-61
2023/03/31 02:39:05;;;;;;;9.48;8.98;;;;;;;;;;5112030;28;20470;-62
2023/03/31 02:41:30;;;;;;;9.70;9.20;;;;;;;;;;5111934;28;20470;-61
2023/03/31 02:43:56;;;;;;;9.05;8.65;;;;;;;;;;5111790;28;20030;-59
2023/03/31 02:46:21;;;;;;;9.50;9.00;;;;;;;;;;5108608;28;20023;-62
2023/03/31 02:48:50;;;;;;;9.55;9.05;;;;;;;;;;5111659;28;20046;-61
2023/03/31 02:51:32;;;;;;;9.25;8.80;;;;;;;;;;5110525;28;20028;-64
2023/03/31 02:53:57;;;;;;;9.50;9.00;;;;;;;;;;5112736;28;20027;-61
2023/03/31 02:56:41;;;;;;;8.85;8.45;;;;;;;;;;5111922;28;20011;-61
2023/03/31 02:59:09;;;;;;;9.23;8.80;;;;;;;;;;5111308;28;20040;-61
2023/03/31 03:01:41;;;;;;;9.82;9.32;;;;;;;;;;5105107;28;20749;-62
2023/03/31 03:04:08;;;;;;;9.15;8.75;;;;;;;;;;5105939;28;20030;-61
2023/03/31 03:06:36;;;;;;;9.80;9.30;;;;;;;;;;5097211;28;20497;-61
2023/03/31 03:09:05;;;;;;;9.35;8.85;;;;;;;;;;5110158;28;20073;-61
2023/03/31 03:11:53;;;;;;;9.40;8.90;;;;;;;;;;5101281;28;20024;-62
2023/03/31 03:14:33;;;;;;;9.50;9.00;;;;;;;;;;5105304;28;20084;-61
2023/03/31 03:17:19;;;;;;;9.23;8.80;;;;;;;;;;5116166;28;20063;-62
2023/03/31 03:19:49;;;;;;;9.35;8.85;;;;;;;;;;5097184;28;20042;-62
2023/03/31 03:22:14;;;;;;;9.50;9.00;;;;;;;;;;5104841;28;20085;-62
2023/03/31 03:24:41;;;;;;;9.65;9.15;;;;;;;;;;5116306;28;20012;-62
2023/03/31 03:27:06;;;;;;;8.98;8.57;;;;;;;;;;5123356;27;20030;-61
2023/03/31 03:29:32;;;;;;;9.63;9.13;;;;;;;;;;5115654;28;20024;-61
2023/03/31 03:31:57;;;;;;;9.88;9.38;;;;;;;;;;5115608;28;20478;-62
2023/03/31 03:34:24;;;;;;;9.48;8.98;;;;;;;;;;5104627;28;20032;-61
2023/03/31 03:36:50;;;;;;;9.82;9.32;;;;;;;;;;5114950;28;20024;-61
2023/03/31 03:39:16;;;;;;;9.68;9.18;;;;;;;;;;5102522;28;20035;-61
2023/03/31 03:41:41;;;;;;;9.55;9.05;;;;;;;;;;5114461;28;20020;-61
2023/03/31 03:44:06;;;;;;;9.40;8.90;;;;;;;;;;5127267;27;20023;-61
2023/03/31 03:46:32;;;;;;;10.23;9.65;;;;;;;;;;5116670;27;20121;-61
2023/03/31 03:48:57;;;;;;;9.13;8.73;;;;;;;;;;5110615;28;20031;-62
2023/03/31 03:51:22;;;;;;;9.10;8.70;;;;;;;;;;5101957;27;20390;-61
2023/03/31 03:53:48;;;;;;;8.85;8.45;;;;;;;;;;5121807;27;20023;-61
2023/03/31 03:56:13;;;;;;;9.50;9.00;;;;;;;;;;5121057;27;20051;-61
2023/03/31 03:58:38;;;;;;;9.80;9.30;;;;;;;;;;5116206;27;20027;-62
2023/03/31 04:01:04;;;;;;;9.30;8.80;;;;;;;;;;5126499;27;20751;-61
2023/03/31 04:03:30;;;;;;;9.55;9.05;;;;;;;;;;5118784;27;20059;-61
2023/03/31 04:05:55;;;;;;;9.82;9.32;;;;;;;;;;5112759;27;20109;-61
2023/03/31 04:08:20;;;;;;;9.38;8.88;;;;;;;;;;5121014;27;20062;-63
2023/03/31 04:10:48;;;;;;;9.55;9.05;;;;;;;;;;5118695;27;20276;-61
2023/03/31 04:13:16;;;;;;;10.18;9.57;;;;;;;;;;5122514;27;20084;-61
2023/03/31 04:15:42;;;;;;;9.15;8.65;;;;;;;;;;5109489;28;20075;-62
2023/03/31 04:18:09;;;;;;;10.05;9.48;;;;;;;;;;5112897;27;20036;-61
2023/03/31 04:20:36;;;;;;;9.95;9.43;;;;;;;;;;5123251;27;20497;-63
2023/03/31 04:23:04;;;;;;;10.10;9.57;;;;;;;;;;5100583;27;20032;-61
2023/03/31 04:25:29;;;;;;;10.60;10.00;;;;;;;;;;5113594;27;20450;-62
2023/03/31 04:27:55;;;;;;;9.45;8.95;;;;;;;;;;5117429;27;20063;-62
2023/03/31 04:30:23;;;;;;;10.43;9.82;;;;;;;;;;5107556;27;20016;-61
2023/03/31 04:32:54;;;;;;;10.32;9.73;;;;;;;;;;5121250;27;20020;-61
2023/03/31 04:35:20;;;;;;;10.35;9.75;;;;;;;;;;5111883;27;20051;-61
2023/03/31 04:37:49;;;;;;;9.70;9.20;;;;;;;;;;5112167;27;20027;-61
2023/03/31 04:40:15;;;;;;;10.48;9.88;;;;;;;;;;5113996;27;20054;-61
2023/03/31 04:42:40;;;;;;;10.00;9.50;;;;;;;;;;5111153;28;20035;-61
2023/03/31 04:45:06;;;;;;;10.45;9.85;;;;;;;;;;5111640;27;20016;-61
2023/03/31 04:47:31;;;;;;;10.48;9.88;;;;;;;;;;5112390;28;20371;-60
2023/03/31 04:49:57;;;;;;;9.80;9.30;;;;;;;;;;5105967;27;20097;-61
2023/03/31 04:52:22;;;;;;;10.52;9.93;;;;;;;;;;5120951;27;20103;-60
2023/03/31 04:54:47;;;;;;;10.13;9.60;;;;;;;;;;5113589;28;20102;-60
2023/03/31 04:57:13;;;;;;;9.90;9.40;;;;;;;;;;5113261;28;20471;-61
2023/03/31 04:59:38;;;;;;;10.48;9.88;;;;;;;;;;5109223;28;20044;-61
2023/03/31 05:02:03;;;;;;;10.10;9.52;;;;;;;;;;5113298;28;20095;-61
2023/03/31 05:04:29;;;;;;;10.25;9.65;;;;;;;;;;5111659;28;20050;-62
2023/03/31 05:06:54;;;;;;;9.98;9.48;;;;;;;;;;5108710;28;20111;-62
2023/03/31 05:09:20;;;;;;;9.10;8.70;;;;;;;;;;5096798;27;20352;-62
2023/03/31 05:11:46;;;;;;;9.80;9.30;;;;;;;;;;5111777;28;20696;-62
2023/03/31 05:14:11;;;;;;;11.88;11.13;;;;;;;;;;5103265;28;20024;-61
2023/03/31 05:16:36;;;;;;;9.98;9.48;;;;;;;;;;5095350;28;20024;-62
2023/03/31 05:19:02;;;;;;;9.00;8.60;;;;;;;;;;5100793;28;20024;-61
2023/03/31 05:21:29;;;;;;;9.63;9.13;;;;;;;;;;5112576;28;20042;-62
2023/03/31 05:23:55;;;;;;;10.48;9.88;;;;;;;;;;5110750;28;20024;-61
2023/03/31 05:26:23;;;;;;;10.38;9.77;;;;;;;;;;5109024;27;20103;-61
2023/03/31 05:28:49;;;;;;;9.60;9.10;;;;;;;;;;5113399;28;20054;-61
2023/03/31 05:31:14;;;;;;;9.40;8.90;;;;;;;;;;5113224;28;20470;-61
2023/03/31 05:33:40;;;;;;;10.43;9.82;;;;;;;;;;5112601;28;20497;-61
2023/03/31 05:36:07;;;;;;;9.60;9.10;;;;;;;;;;5112695;28;20550;-61
2023/03/31 05:38:33;;;;;;;10.70;10.10;;;;;;;;;;5111774;28;20392;-60
2023/03/31 05:40:58;;;;;;;10.20;9.60;;;;;;;;;;5110933;28;20019;-62
2023/03/31 05:43:24;;;;;;;9.57;9.07;;;;;;;;;;5113596;27;20019;-60
2023/03/31 05:45:49;;;;;;;9.95;9.43;;;;;;;;;;5110528;28;20019;-62
2023/03/31 05:48:14;;;;;;;9.98;9.48;;;;;;;;;;5104661;27;20420;-62
2023/03/31 05:50:41;;;;;;;10.20;9.60;;;;;;;;;;5112594;28;20110;-60
2023/03/31 05:53:07;;;;;;;9.93;9.43;;;;;;;;;;5111563;28;20086;-60
2023/03/31 05:55:34;;;;;;;10.50;9.90;;;;;;;;;;5110115;28;20031;-61
2023/03/31 05:58:00;;;;;;;10.25;9.70;;;;;;;;;;5099510;28;20471;-63
2023/03/31 06:00:25;;;;;;;10.38;9.77;;;;;;;;;;5100891;27;20089;-63
2023/03/31 06:02:50;;;;;;;9.90;9.40;;;;;;;;;;5112295;28;20038;-64
2023/03/31 06:05:16;;;;;;;10.60;10.00;;;;;;;;;;5110390;28;20027;-64
2023/03/31 06:07:41;;;;;;;10.15;9.65;;;;;;;;;;5120210;28;20015;-65
2023/03/31 06:10:07;;;;;;;10.20;9.70;;;;;;;;;;5110215;28;20091;-64
2023/03/31 06:12:33;;;;;;;10.52;9.93;;;;;;;;;;5108016;28;20050;-65
2023/03/31 06:14:58;;;;;;;10.00;9.50;;;;;;;;;;5107937;28;20051;-64
2023/03/31 06:17:23;;;;;;;10.02;9.52;;;;;;;;;;5109048;28;20024;-64
2023/03/31 06:19:49;;;;;;;10.43;9.93;;;;;;;;;;5115359;28;20007;-65
2023/03/31 06:22:14;;;;;;;10.02;9.52;;;;;;;;;;5110307;28;20476;-63
2023/03/31 06:24:39;;;;;;;10.48;9.95;;;;;;;;;;5108369;28;20032;-66
2023/03/31 06:27:05;;;;;;;11.05;10.45;;;;;;;;;;5120315;28;20656;-63
2023/03/31 06:29:30;;;;;;;10.27;9.77;;;;;;;;;;5104501;28;20020;-63
2023/03/31 06:31:56;;;;;;;10.27;9.77;;;;;;;;;;5110944;28;20026;-65
2023/03/31 06:34:21;;;;;;;10.00;9.50;;;;;;;;;;5118179;28;20026;-63
2023/03/31 06:36:46;;;;;;;10.32;9.82;;;;;;;;;;5113510;28;20131;-65
2023/03/31 06:39:11;;;;;;;9.77;9.27;;;;;;;;;;5112120;28;20016;-65
2023/03/31 06:41:37;;;;;;;11.02;10.43;;;;;;;;;;5110741;28;20027;-63
2023/03/31 06:44:03;;;;;;;9.95;9.45;;;;;;;;;;5106881;27;20101;-62
2023/03/31 06:46:28;;;;;;;10.15;9.65;;;;;;;;;;5113577;28;20114;-62
2023/03/31 06:48:54;;;;;;;10.48;9.98;;;;;;;;;;5115764;28;20032;-65
2023/03/31 06:51:19;;;;;;;9.88;9.38;;;;;;;;;;5112616;28;20069;-63
2023/03/31 06:53:44;;;;;;;10.00;9.50;;;;;;;;;;5106862;28;20027;-64
2023/03/31 06:56:10;;;;;;;10.40;9.90;;;;;;;;;;5108129;28;20031;-63
2023/03/31 06:58:35;;;;;;;10.38;9.88;;;;;;;;;;5101052;28;20024;-63
2023/03/31 07:01:02;;;;;;;10.03;9.53;;;;;;;;;;5075018;28;1200952;-64
2023/03/31 07:03:28;;;;;;;10.00;9.50;;;;;;;;;;5112888;28;20264;-63
2023/03/31 07:05:54;;;;;;;10.63;10.02;;;;;;;;;;5101013;28;20038;-62
2023/03/31 07:08:20;;;;;;;10.50;9.98;;;;;;;;;;5110547;28;20027;-63
2023/03/31 07:10:47;;;;;;;9.90;9.40;;;;;;;;;;5115634;28;20027;-64
2023/03/31 07:13:12;;;;;;;10.05;9.55;;;;;;;;;;5104031;28;20028;-63
2023/03/31 07:15:38;;;;;;;9.80;9.30;;;;;;;;;;5112547;28;20080;-65
2023/03/31 07:18:03;;;;;;;10.32;9.82;;;;;;;;;;5112905;28;20378;-63
2023/03/31 07:20:29;;;;;;;10.00;9.50;;;;;;;;;;5103853;28;20364;-63
2023/03/31 07:22:55;;;;;;;9.88;9.38;;;;;;;;;;5111304;28;20038;-64
2023/03/31 07:25:20;;;;;;;9.40;9.00;;;;;;;;;;5110706;28;20024;-63
2023/03/31 07:27:45;;;;;;;9.95;9.45;;;;;;;;;;5121341;28;20023;-65
2023/03/31 07:30:15;;;;;;;9.98;9.48;;;;;;;;;;5111161;28;20046;-63
2023/03/31 07:32:41;;;;;;;10.75;10.15;;;;;;;;;;5097308;28;20475;-62
2023/03/31 07:35:10;;;;;;;10.50;10.00;;;;;;;;;;5110469;28;20065;-63
2023/03/31 07:37:40;;;;;;;10.85;10.25;;;;;;;;;;5102194;28;20024;-63
2023/03/31 07:40:06;;;;;;;11.15;10.55;;;;;;;;;;5107342;28;20034;-65
2023/03/31 07:42:32;;;;;;;11.85;11.15;;;;;;;;;;5106331;28;20032;-66
2023/03/31 07:44:57;;;;;;;11.07;10.48;;;;;;;;;;5106507;28;20030;-64
2023/03/31 07:47:23;;;;;;;10.95;10.35;;;;;;;;;;5102304;28;20032;-65
2023/03/31 07:49:49;;;;;;;11.23;10.63;;;;;;;;;;5100254;28;20459;-64
2023/03/31 07:52:15;;;;;;;11.30;10.70;;;;;;;;;;5111889;28;20031;-62
2023/03/31 07:54:40;;;;;;;11.57;10.98;;;;;;;;;;5114936;28;20012;-62
2023/03/31 07:57:07;;;;;;;11.68;11.07;;;;;;;;;;5109807;27;20024;-62
2023/03/31 07:59:32;;;;;;;11.50;10.90;;;;;;;;;;5122634;27;20514;-64
2023/03/31 08:01:58;;;;;;;10.95;10.35;;;;;;;;;;5106478;27;20031;-63
2023/03/31 08:04:23;;;;;;;11.43;10.82;;;;;;;;;;5117210;27;20028;-64
2023/03/31 08:06:50;;;;;;;10.65;10.15;;;;;;;;;;5109415;27;20027;-66
2023/03/31 08:09:17;;;;;;;11.35;10.75;;;;;;;;;;5120355;27;20031;-66
2023/03/31 08:11:43;;;;;;;12.10;11.40;;;;;;;;;;5119652;27;20466;-67
2023/03/31 08:14:08;;;;;;;11.32;10.73;;;;;;;;;;5116585;27;20038;-67
2023/03/31 08:16:34;;;;;;;11.35;10.75;;;;;;;;;;5103664;27;20023;-66
2023/03/31 08:19:00;;;;;;;11.02;10.43;;;;;;;;;;5110486;28;20018;-67
2023/03/31 08:21:26;;;;;;;11.40;10.80;;;;;;;;;;5107616;27;20126;-66
2023/03/31 08:23:52;;;;;;;11.65;11.05;;;;;;;;;;5110219;27;20019;-67
2023/03/31 08:26:18;;;;;;;11.25;10.65;;;;;;;;;;5117237;27;20031;-67
2023/03/31 08:28:43;;;;;;;10.45;9.95;;;;;;;;;;5112110;27;20440;-63
2023/03/31 08:31:09;;;;;;;10.95;10.38;;;;;;;;;;5103522;28;20031;-62
2023/03/31 08:33:35;;;;;;;10.00;9.50;;;;;;;;;;5113840;27;20023;-65
2023/03/31 08:36:00;;;;;;;10.25;9.75;;;;;;;;;;5112561;28;20043;-65
2023/03/31 08:38:26;;;;;;;9.60;9.20;;;;;;;;;;5075388;28;20023;-61
2023/03/31 08:40:57;;;;;;;10.05;9.55;;;;;;;;;;5107016;27;20019;-62
2023/03/31 08:43:26;;;;;;;10.05;9.55;;;;;;;;;;5106880;28;20011;-62
2023/03/31 08:45:53;;;;;;;10.55;10.05;;;;;;;;;;5107166;28;20446;-64
2023/03/31 08:48:21;;;;;;;10.15;9.65;;;;;;;;;;5123308;27;20083;-63
2023/03/31 08:50:49;;;;;;;10.35;9.85;;;;;;;;;;5099649;28;20024;-61
2023/03/31 08:53:25;;;;;;;10.32;9.82;;;;;;;;;;5113268;28;20047;-62
2023/03/31 08:55:52;;;;;;;10.25;9.75;;;;;;;;;;5093204;28;20105;-62
2023/03/31 08:58:20;;;;;;;10.10;9.60;;;;;;;;;;5099369;28;20373;-62
2023/03/31 09:00:50;;;;;;;9.45;9.05;;;;;;;;;;5113539;28;20046;-62
2023/03/31 09:03:29;;;;;;;9.85;9.35;;;;;;;;;;5114432;28;20027;-62
2023/03/31 09:06:17;;;;;;;9.80;9.30;;;;;;;;;;5115323;28;20026;-62
2023/03/31 09:08:43;;;;;;;9.55;9.15;;;;;;;;;;5081452;28;20513;-62
2023/03/31 09:11:12;;;;;;;9.50;9.10;;;;;;;;;;5111177;28;20028;-62
2023/03/31 09:13:46;;;;;;;10.38;9.88;;;;;;;;;;5114813;28;20023;-63
2023/03/31 09:16:11;;;;;;;10.00;9.50;;;;;;;;;;5114017;28;20024;-62
2023/03/31 09:18:37;;;;;;;10.52;10.02;;;;;;;;;;5112683;28;20020;-62
2023/03/31 09:21:05;;;;;;;10.55;10.05;;;;;;;;;;5113158;28;20015;-62
2023/03/31 09:23:33;;;;;;;10.38;9.88;;;;;;;;;;5112726;28;20054;-61
2023/03/31 09:26:00;;;;;;;9.98;9.48;;;;;;;;;;5112799;28;20027;-62
2023/03/31 09:28:31;;;;;;;9.95;9.45;;;;;;;;;;5113178;28;20020;-62
2023/03/31 09:30:56;;;;;;;10.30;9.80;;;;;;;;;;5113429;28;20083;-61
2023/03/31 09:33:27;;;;;;;9.65;9.23;;;;;;;;;;5113131;28;20107;-61
2023/03/31 09:35:52;;;;;;;9.70;9.30;;;;;;;;;;5112725;28;20266;-63
2023/03/31 09:38:17;;;;;;;9.77;9.32;;;;;;;;;;5114638;28;20020;-62
2023/03/31 09:40:43;;;;;;;9.98;9.48;;;;;;;;;;5097683;28;20027;-62
2023/03/31 09:43:20;;;;;;;10.00;9.50;;;;;;;;;;5111840;28;20020;-62
2023/03/31 09:45:46;;;;;;;10.38;9.88;;;;;;;;;;5111789;28;20083;-62
2023/03/31 09:48:13;;;;;;;9.68;9.27;;;;;;;;;;5115443;27;20024;-62
2023/03/31 09:50:42;;;;;;;10.82;10.32;;;;;;;;;;5112862;28;20104;-61
2023/03/31 09:53:14;;;;;;;10.60;10.10;;;;;;;;;;5109511;28;20027;-62
2023/03/31 09:55:42;;;;;;;10.25;9.75;;;;;;;;;;5112370;28;20031;-61
2023/03/31 09:58:11;;;;;;;10.45;9.95;;;;;;;;;;5112989;28;20482;-63
2023/03/31 10:00:40;;;;;;;10.30;9.80;;;;;;;;;;5100155;28;20053;-62
2023/03/31 10:03:06;;;;;;;10.38;9.88;;;;;;;;;;5112348;28;20026;-62
2023/03/31 10:05:31;;;;;;;10.77;10.27;;;;;;;;;;5112446;28;20012;-63
2023/03/31 10:08:17;;;;;;;9.52;9.13;;;;;;;;;;5104092;28;20407;-63
2023/03/31 10:10:50;;;;;;;10.15;9.65;;;;;;;;;;5089648;28;20034;-62
2023/03/31 10:13:17;;;;;;;10.35;9.85;;;;;;;;;;5111997;28;20068;-63
2023/03/31 10:15:43;;;;;;;11.18;10.68;;;;;;;;;;5111958;28;20023;-62
2023/03/31 10:18:16;;;;;;;10.68;10.18;;;;;;;;;;5112175;28;20019;-62
2023/03/31 10:20:49;;;;;;;10.57;10.07;;;;;;;;;;5111910;28;20375;-62
2023/03/31 10:23:22;;;;;;;10.57;10.07;;;;;;;;;;5109702;28;20024;-62
2023/03/31 10:25:48;;;;;;;10.57;10.07;;;;;;;;;;5111461;28;20020;-62
2023/03/31 10:28:17;;;;;;;11.10;10.60;;;;;;;;;;5111593;28;20046;-62
2023/03/31 10:30:46;;;;;;;10.32;9.82;;;;;;;;;;5111831;28;20028;-61
2023/03/31 10:33:13;;;;;;;10.35;9.85;;;;;;;;;;5112025;28;20030;-62
2023/03/31 10:35:39;;;;;;;10.57;10.07;;;;;;;;;;5111287;28;20390;-61
2023/03/31 10:38:06;;;;;;;10.25;9.75;;;;;;;;;;5101950;28;20121;-63
2023/03/31 10:40:32;;;;;;;9.68;9.27;;;;;;;;;;5077560;28;20398;-62
2023/03/31 10:43:18;;;;;;;11.38;10.77;;;;;;;;;;5111286;28;20028;-61
2023/03/31 10:45:55;;;;;;;10.30;9.80;;;;;;;;;;5111340;28;20068;-63
2023/03/31 10:48:25;;;;;;;10.30;9.80;;;;;;;;;;5121808;28;20110;-63
2023/03/31 10:50:50;;;;;;;10.23;9.73;;;;;;;;;;5108491;28;20020;-63
2023/03/31 10:53:16;;;;;;;10.35;9.85;;;;;;;;;;5112320;28;20088;-63
2023/03/31 10:55:50;;;;;;;10.48;9.98;;;;;;;;;;5111935;28;20464;-62
2023/03/31 10:58:38;;;;;;;10.50;10.00;;;;;;;;;;5111608;28;20102;-62
2023/03/31 11:01:19;;;;;;;9.60;9.20;;;;;;;;;;5111124;28;20055;-61
2023/03/31 11:03:44;;;;;;;9.70;9.30;;;;;;;;;;5111517;28;20008;-62
2023/03/31 11:06:15;;;;;;;10.07;9.57;;;;;;;;;;5111909;28;20026;-62
2023/03/31 11:08:50;;;;;;;10.52;10.02;;;;;;;;;;5111826;28;20374;-61
2023/03/31 11:11:22;;;;;;;9.93;9.48;;;;;;;;;;5111879;28;20030;-61
2023/03/31 11:13:54;;;;;;;10.18;9.68;;;;;;;;;;5098830;28;20490;-62
2023/03/31 11:16:38;;;;;;;10.48;9.98;;;;;;;;;;5111472;28;20020;-63
2023/03/31 11:19:07;;;;;;;9.52;9.13;;;;;;;;;;5105712;28;20016;-62
2023/03/31 11:21:41;;;;;;;10.52;10.02;;;;;;;;;;5111404;28;20016;-63
2023/03/31 11:24:06;;;;;;;;;;;;;;;;;;5111617;28;20015;-63
2023/03/31 11:26:38;;;;;;;10.17;9.67;;;;;;;;;;5110944;28;19915;-63
2023/03/31 11:29:10;;;;;;;10.55;10.05;;;;;;;;;;5111925;28;20251;-63
2023/03/31 11:32:05;;;;;;;10.35;9.85;;;;;;;;;;5092076;28;20026;-62
2023/03/31 11:34:30;;;;;;;10.10;9.60;;;;;;;;;;5091842;28;20499;-62
2023/03/31 11:37:03;;;;;;;10.55;10.05;;;;;;;;;;5115329;28;20059;-62
2023/03/31 11:39:34;;;;;;;10.30;9.80;;;;;;;;;;5115322;28;20020;-61
2023/03/31 11:42:01;;;;;;;9.60;9.20;;;;;;;;;;5115756;28;20424;-63
2023/03/31 11:44:29;;;;;;;10.65;10.15;;;;;;;;;;5114872;28;20027;-62
2023/03/31 11:47:24;;;;;;;11.20;10.60;;;;;;;;;;5113021;28;20085;-62
2023/03/31 11:50:10;;;;;;;9.73;9.32;;;;;;;;;;5088524;28;20051;-63
2023/03/31 11:52:40;;;;;;;10.15;9.65;;;;;;;;;;5113376;28;20024;-61
2023/03/31 11:55:06;;;;;;;10.40;9.90;;;;;;;;;;5114971;28;20355;-62
2023/03/31 11:57:43;;;;;;;10.73;10.23;;;;;;;;;;5114726;28;20026;-62
2023/03/31 12:00:16;;;;;;;11.48;10.88;;;;;;;;;;5108873;28;20040;-62
2023/03/31 12:02:58;;;;;;;10.25;9.75;;;;;;;;;;5111988;28;20505;-62
2023/03/31 12:05:25;;;;;;;10.30;9.80;;;;;;;;;;5114699;28;20024;-63
2023/03/31 12:07:53;;;;;;;10.48;9.98;;;;;;;;;;5113996;28;20055;-63
2023/03/31 12:10:24;;;;;;;10.07;9.57;;;;;;;;;;5106727;28;20012;-62
2023/03/31 12:12:55;;;;;;;10.73;10.23;;;;;;;;;;5114911;28;20026;-62
2023/03/31 12:15:26;;;;;;;10.30;9.80;;;;;;;;;;5111982;28;20679;-63
2023/03/31 12:18:11;;;;;;;10.63;10.13;;;;;;;;;;5100927;28;20443;-62
2023/03/31 12:20:40;;;;;;;10.00;9.50;;;;;;;;;;5096829;28;20402;-63
2023/03/31 12:23:10;;;;;;;9.50;9.10;;;;;;;;;;5114916;28;20023;-63
2023/03/31 12:25:55;;;;;;;10.07;9.57;;;;;;;;;;5113703;28;20047;-62
2023/03/31 12:28:21;;;;;;;10.05;9.55;;;;;;;;;;5092942;28;20111;-62
2023/03/31 12:30:47;;;;;;;10.68;10.18;;;;;;;;;;5106288;28;20090;-62
2023/03/31 12:33:18;;;;;;;10.48;9.98;;;;;;;;;;5114268;28;20039;-61
2023/03/31 12:35:44;;;;;;;10.00;9.50;;;;;;;;;;5114101;28;20487;-62
2023/03/31 12:38:30;;;;;;;9.73;9.32;;;;;;;;;;5114436;28;20051;-63
2023/03/31 12:41:01;;;;;;;9.65;9.25;;;;;;;;;;5101584;28;20066;-62
2023/03/31 12:43:29;;;;;;;9.82;9.32;;;;;;;;;;5112632;28;20023;-63
2023/03/31 12:46:03;;;;;;;9.93;9.43;;;;;;;;;;5113832;28;20512;-62
2023/03/31 12:48:28;;;;;;;10.50;10.00;;;;;;;;;;5123548;27;20031;-62
2023/03/31 12:50:53;;;;;;;10.00;9.50;;;;;;;;;;5096612;28;20469;-63
2023/03/31 12:53:27;;;;;;;10.60;10.10;;;;;;;;;;5107791;28;20035;-63
2023/03/31 12:55:58;;;;;;;10.70;10.20;;;;;;;;;;5105831;28;20669;-61
2023/03/31 12:58:25;;;;;;;10.73;10.23;;;;;;;;;;5113487;28;20023;-62
2023/03/31 13:01:00;;;;;;;11.35;10.75;;;;;;;;;;5112410;28;20048;-61
2023/03/31 13:03:43;;;;;;;10.50;10.00;;;;;;;;;;5113700;28;20019;-62
2023/03/31 13:06:10;;;;;;;10.77;10.27;;;;;;;;;;5113203;28;20020;-61
2023/03/31 13:08:55;;;;;;;10.23;9.73;;;;;;;;;;5112970;28;20031;-62
2023/03/31 13:11:30;;;;;;;10.10;9.60;;;;;;;;;;5105883;28;20046;-62
2023/03/31 13:13:58;;;;;;;10.60;10.10;;;;;;;;;;5113774;28;20027;-63
2023/03/31 13:16:23;;;;;;;9.68;9.27;;;;;;;;;;5099067;28;20019;-62
2023/03/31 13:18:50;;;;;;;10.52;10.02;;;;;;;;;;5113207;28;20019;-62
2023/03/31 13:21:15;;;;;;;10.38;9.88;;;;;;;;;;5098363;28;20024;-62
2023/03/31 13:23:44;;;;;;;13.00;12.30;;;;;;;;;;5100591;27;20031;-63
2023/03/31 13:26:28;;;;;;;10.32;9.82;;;;;;;;;;5108134;27;20039;-63
2023/03/31 13:29:12;;;;;;;10.35;9.85;;;;;;;;;;5099430;28;20047;-62
2023/03/31 13:31:56;;;;;;;11.23;10.63;;;;;;;;;;5098022;28;20115;-63
2023/03/31 13:34:21;;;;;;;10.10;9.60;;;;;;;;;;5106104;27;20098;-62
2023/03/31 13:36:58;;;;;;;10.90;10.40;;;;;;;;;;5112700;28;20455;-61
2023/03/31 13:39:36;;;;;;;9.98;9.48;;;;;;;;;;5105656;27;20054;-63
2023/03/31 13:42:16;;;;;;;9.85;9.43;;;;;;;;;;5108049;28;20454;-61
2023/03/31 13:45:00;;;;;;;12.77;12.07;;;;;;;;;;5104719;27;20436;-67
2023/03/31 13:47:29;;;;;;;11.70;11.10;;;;;;;;;;5103049;27;20651;-64
2023/03/31 13:50:04;;;;;;;12.23;11.52;;;;;;;;;;5096667;27;20035;-65
2023/03/31 13:52:35;;;;;;;11.82;11.23;;;;;;;;;;5095593;27;20068;-65
2023/03/31 13:55:10;;;;;;;12.50;11.80;;;;;;;;;;5107122;27;20103;-65
2023/03/31 13:57:54;;;;;;;11.40;10.80;;;;;;;;;;5105999;28;20030;-63
2023/03/31 14:00:36;;;;;;;11.07;10.50;;;;;;;;;;5103120;27;20048;-65
2023/03/31 14:03:21;;;;;;;12.20;11.50;;;;;;;;;;5102306;27;20080;-63
2023/03/31 14:05:52;;;;;;;11.68;11.07;;;;;;;;;;5100533;27;20023;-63
2023/03/31 14:08:23;;;;;;;11.80;11.20;;;;;;;;;;5100765;27;20118;-62
2023/03/31 14:10:48;;;;;;;11.25;10.65;;;;;;;;;;5107763;27;20059;-62
2023/03/31 14:13:15;;;;;;;11.10;10.50;;;;;;;;;;5120193;27;20065;-63
2023/03/31 14:15:48;;;;;;;10.68;10.18;;;;;;;;;;5111039;27;20027;-65
2023/03/31 14:18:43;;;;;;;11.93;11.32;;;;;;;;;;5109118;28;20019;-65
2023/03/31 14:21:26;;;;;;;10.40;9.90;;;;;;;;;;5080884;28;20119;-65
2023/03/31 14:23:58;;;;;;;11.27;10.67;;;;;;;;;;5101670;28;20020;-64
2023/03/31 14:26:35;;;;;;;10.75;10.25;;;;;;;;;;5096586;28;20031;-63
2023/03/31 14:29:10;;;;;;;10.55;10.05;;;;;;;;;;5105908;27;20018;-64
2023/03/31 14:31:35;;;;;;;;;;;;;;;;;;5103742;28;20114;-64
2023/03/31 14:34:10;;;;;;;10.10;9.60;;;;;;;;;;5106874;28;19935;-63
2023/03/31 14:36:56;;;;;;;10.60;10.10;;;;;;;;;;5100857;27;20023;-62
2023/03/31 14:39:23;;;;;;;11.25;10.65;;;;;;;;;;5107980;28;20023;-63
2023/03/31 14:41:52;;;;;;;12.45;11.75;;;;;;;;;;5098695;28;20058;-63
2023/03/31 14:44:18;;;;;;;10.65;10.15;;;;;;;;;;5109340;28;20024;-64
2023/03/31 14:46:45;;;;;;;10.75;10.25;;;;;;;;;;5109196;28;20037;-65